Time;durP1;ratioP1;P1;durP2;ratioP2;P2;SDS_P1;SDS_P2;PMS_P1;PMS_P2;Temp;Humidity;BMP_temperature;BMP_pressure;BME280_temperature;BME280_humidity;BME280_pressure;Samples;Min_cycle;Max_cycle;Signal;HPM_P1;HPM_P2
2023/07/30 00:00:43;;;;;;;9.40;2.37;;;16.70;99.90;;;;;;5015266;28;20275;-78
2023/07/30 00:03:09;;;;;;;5.30;2.50;;;16.70;99.90;;;;;;5011965;28;20204;-78
2023/07/30 00:05:34;;;;;;;9.50;2.00;;;16.70;99.90;;;;;;5011712;28;20702;-78
2023/07/30 00:08:00;;;;;;;6.63;2.17;;;16.60;99.90;;;;;;5012031;28;20689;-77
2023/07/30 00:10:26;;;;;;;5.77;2.00;;;16.60;99.90;;;;;;5013613;28;20212;-78
2023/07/30 00:12:51;;;;;;;6.13;2.17;;;16.60;99.90;;;;;;5012200;28;20222;-78
2023/07/30 00:15:17;;;;;;;5.27;2.00;;;16.50;99.90;;;;;;5013479;28;20185;-78
2023/07/30 00:17:42;;;;;;;10.60;2.40;;;16.40;99.90;;;;;;5012273;28;20188;-78
2023/07/30 00:20:08;;;;;;;6.63;2.47;;;16.20;99.90;;;;;;5011968;28;20200;-79
2023/07/30 00:22:34;;;;;;;5.13;2.10;;;16.20;99.90;;;;;;5013509;28;20195;-78
2023/07/30 00:25:00;;;;;;;4.00;2.20;;;16.10;99.90;;;;;;5013255;28;20201;-78
2023/07/30 00:27:25;;;;;;;5.13;1.93;;;16.00;99.90;;;;;;5013746;28;20197;-78
2023/07/30 00:29:51;;;;;;;5.53;2.20;;;15.90;99.90;;;;;;5011967;28;20197;-78
2023/07/30 00:32:17;;;;;;;5.73;2.17;;;15.90;99.90;;;;;;5014749;28;20184;-78
2023/07/30 00:34:43;;;;;;;5.17;2.17;;;15.80;99.90;;;;;;5015534;28;20727;-78
2023/07/30 00:37:08;;;;;;;5.07;2.40;;;15.80;99.90;;;;;;5016014;28;20243;-78
2023/07/30 00:39:34;;;;;;;5.23;2.63;;;15.70;99.90;;;;;;5016162;28;20177;-78
2023/07/30 00:41:59;;;;;;;5.33;2.10;;;15.70;99.90;;;;;;5017254;28;20227;-78
2023/07/30 00:44:25;;;;;;;12.97;2.30;;;15.60;99.90;;;;;;5016952;28;20271;-78
2023/07/30 00:46:51;;;;;;;3.33;2.00;;;15.50;99.90;;;;;;5016305;28;20211;-78
2023/07/30 00:49:16;;;;;;;8.30;2.80;;;15.50;99.90;;;;;;5017166;28;20177;-78
2023/07/30 00:51:43;;;;;;;3.33;2.23;;;15.50;99.90;;;;;;5015790;28;20204;-78
2023/07/30 00:54:10;;;;;;;6.43;2.57;;;15.50;99.90;;;;;;5017051;28;20180;-78
2023/07/30 00:56:36;;;;;;;5.37;2.57;;;15.40;99.90;;;;;;5016159;28;20192;-77
2023/07/30 00:59:02;;;;;;;5.97;2.00;;;15.40;99.90;;;;;;5015335;28;20180;-78
2023/07/30 01:01:28;;;;;;;10.30;2.00;;;15.30;99.90;;;;;;5016593;28;20204;-78
2023/07/30 01:03:54;;;;;;;5.00;2.30;;;15.30;99.90;;;;;;5016676;28;20212;-78
2023/07/30 01:06:20;;;;;;;5.80;2.37;;;15.30;99.90;;;;;;5014943;28;20173;-77
2023/07/30 01:08:46;;;;;;;10.67;2.63;;;15.30;99.90;;;;;;5016985;28;20169;-78
2023/07/30 01:11:14;;;;;;;5.43;2.40;;;15.20;99.90;;;;;;5016402;28;20544;-78
2023/07/30 01:13:40;;;;;;;5.83;2.00;;;15.20;99.90;;;;;;5017011;28;20272;-78
2023/07/30 01:16:06;;;;;;;4.07;2.30;;;15.10;99.90;;;;;;5016352;28;20173;-78
2023/07/30 01:18:32;;;;;;;7.27;2.00;;;15.10;99.90;;;;;;5016389;28;20179;-78
2023/07/30 01:20:59;;;;;;;7.33;2.20;;;15.00;99.90;;;;;;5015176;28;20284;-78
2023/07/30 01:23:25;;;;;;;5.03;2.77;;;15.00;99.90;;;;;;5016679;28;20199;-78
2023/07/30 01:26:16;;;;;;;9.67;2.57;;;14.90;99.90;;;;;;5016500;28;20222;-78
2023/07/30 01:28:48;;;;;;;5.97;2.40;;;14.90;99.90;;;;;;5009381;28;20217;-79
2023/07/30 01:31:16;;;;;;;8.30;2.53;;;14.80;99.90;;;;;;5014904;28;20258;-79
2023/07/30 01:33:43;;;;;;;12.30;3.03;;;14.80;99.90;;;;;;5016473;28;20173;-78
2023/07/30 01:36:12;;;;;;;9.17;2.60;;;14.80;99.90;;;;;;5014785;28;20638;-78
2023/07/30 01:38:39;;;;;;;5.90;2.27;;;14.60;99.90;;;;;;5014758;28;20779;-78
2023/07/30 01:41:05;;;;;;;8.13;2.97;;;14.70;99.90;;;;;;5014789;28;20207;-79
2023/07/30 01:43:30;;;;;;;7.47;2.47;;;14.70;99.90;;;;;;5015283;28;20549;-78
2023/07/30 01:45:56;;;;;;;10.00;3.07;;;14.70;99.90;;;;;;5014974;28;20180;-78
2023/07/30 01:48:21;;;;;;;4.53;2.40;;;14.70;99.90;;;;;;5016698;28;20585;-78
2023/07/30 01:50:48;;;;;;;4.67;2.27;;;14.70;99.90;;;;;;5015303;28;20747;-78
2023/07/30 01:53:14;;;;;;;5.87;2.30;;;14.60;99.90;;;;;;5014139;28;20181;-78
2023/07/30 01:55:43;;;;;;;5.30;2.20;;;14.60;99.90;;;;;;5015486;28;20176;-78
2023/07/30 01:58:09;;;;;;;6.43;2.17;;;14.60;99.90;;;;;;5015395;28;20260;-78
2023/07/30 02:00:35;;;;;;;10.00;2.23;;;14.60;99.90;;;;;;5015400;28;20196;-78
2023/07/30 02:03:00;;;;;;;4.57;2.20;;;14.60;99.90;;;;;;5013873;28;20181;-78
2023/07/30 02:05:26;;;;;;;7.57;2.50;;;14.60;99.90;;;;;;5014966;28;20786;-78
2023/07/30 02:07:52;;;;;;;9.20;2.53;;;14.60;99.90;;;;;;5015235;28;20181;-78
2023/07/30 02:10:17;;;;;;;3.27;2.27;;;14.60;99.90;;;;;;5014050;28;20197;-78
2023/07/30 02:12:43;;;;;;;10.60;2.60;;;14.60;99.90;;;;;;5015096;28;20184;-78
2023/07/30 02:15:08;;;;;;;5.20;2.43;;;14.50;99.90;;;;;;5013764;28;20213;-78
2023/07/30 02:17:34;;;;;;;16.40;2.70;;;14.50;99.90;;;;;;5015377;28;20503;-78
2023/07/30 02:19:59;;;;;;;11.90;2.70;;;14.40;99.90;;;;;;5015110;28;20208;-78
2023/07/30 02:22:25;;;;;;;3.13;2.00;;;14.40;99.90;;;;;;5015256;28;20192;-78
2023/07/30 02:24:50;;;;;;;5.50;2.30;;;14.40;99.90;;;;;;5014988;28;20545;-78
2023/07/30 02:27:16;;;;;;;6.43;2.20;;;14.30;99.90;;;;;;5014978;28;20255;-78
2023/07/30 02:29:42;;;;;;;6.07;2.30;;;14.30;99.90;;;;;;5014942;28;20248;-78
2023/07/30 02:32:08;;;;;;;6.40;2.30;;;14.30;99.90;;;;;;5014785;28;20161;-78
2023/07/30 02:34:33;;;;;;;3.60;2.00;;;14.30;99.90;;;;;;5015036;28;20180;-78
2023/07/30 02:36:59;;;;;;;7.90;2.10;;;14.30;99.90;;;;;;5015184;28;20172;-78
2023/07/30 02:39:24;;;;;;;10.47;2.60;;;14.20;99.90;;;;;;5014895;28;20177;-78
2023/07/30 02:41:50;;;;;;;2.47;2.00;;;14.30;99.90;;;;;;5014619;28;20231;-77
2023/07/30 02:44:15;;;;;;;5.90;2.53;;;14.20;99.90;;;;;;5014281;28;20204;-78
2023/07/30 02:46:41;;;;;;;4.07;2.13;;;14.20;99.90;;;;;;5014457;28;20176;-77
2023/07/30 02:49:08;;;;;;;7.40;2.80;;;14.20;99.90;;;;;;5014332;28;20173;-78
2023/07/30 02:51:33;;;;;;;6.03;2.77;;;14.20;99.90;;;;;;5014673;28;20274;-78
2023/07/30 02:54:04;;;;;;;5.30;2.57;;;14.20;99.90;;;;;;5014501;28;20625;-78
2023/07/30 02:56:29;;;;;;;12.50;2.40;;;14.10;99.90;;;;;;5014404;28;20163;-78
2023/07/30 02:58:55;;;;;;;7.27;3.00;;;14.10;99.90;;;;;;5014452;28;20177;-78
2023/07/30 03:01:20;;;;;;;12.17;2.90;;;14.10;99.90;;;;;;5014193;28;20251;-78
2023/07/30 03:03:46;;;;;;;5.93;2.27;;;14.00;99.90;;;;;;5014252;28;20203;-78
2023/07/30 03:06:11;;;;;;;6.23;2.27;;;14.00;99.90;;;;;;5014699;28;20179;-78
2023/07/30 03:08:38;;;;;;;4.57;2.70;;;14.00;99.90;;;;;;5014445;28;20256;-78
2023/07/30 03:11:03;;;;;;;7.03;2.93;;;14.00;99.90;;;;;;5012834;28;20204;-78
2023/07/30 03:13:29;;;;;;;7.00;2.27;;;13.90;99.90;;;;;;5014707;28;20177;-78
2023/07/30 03:15:55;;;;;;;10.97;2.70;;;13.90;99.90;;;;;;5014540;28;20177;-78
2023/07/30 03:18:20;;;;;;;4.13;2.50;;;13.90;99.90;;;;;;5014417;28;20548;-78
2023/07/30 03:20:46;;;;;;;2.67;2.47;;;13.90;99.90;;;;;;5014415;28;20229;-78
2023/07/30 03:23:11;;;;;;;5.10;2.23;;;13.80;99.90;;;;;;5013938;28;20210;-78
2023/07/30 03:25:37;;;;;;;6.20;2.60;;;13.70;99.90;;;;;;5013928;28;20300;-78
2023/07/30 03:28:02;;;;;;;6.83;2.37;;;13.70;99.90;;;;;;5014007;28;20188;-78
2023/07/30 03:30:28;;;;;;;10.93;2.87;;;13.60;99.90;;;;;;5014170;28;20197;-78
2023/07/30 03:32:54;;;;;;;5.13;2.23;;;13.60;99.90;;;;;;5012444;28;20204;-78
2023/07/30 03:35:19;;;;;;;9.13;2.70;;;13.50;99.90;;;;;;5013811;28;20196;-78
2023/07/30 03:37:44;;;;;;;7.63;2.50;;;13.60;99.90;;;;;;5012651;28;20265;-79
2023/07/30 03:40:10;;;;;;;10.10;2.43;;;13.50;99.90;;;;;;5013774;28;20197;-78
2023/07/30 03:42:36;;;;;;;5.40;2.50;;;13.50;99.90;;;;;;5012834;28;20205;-78
2023/07/30 03:45:01;;;;;;;4.43;2.00;;;13.60;99.90;;;;;;5012412;28;20506;-78
2023/07/30 03:47:27;;;;;;;7.47;2.50;;;13.50;99.90;;;;;;5014074;28;20181;-78
2023/07/30 03:49:52;;;;;;;9.10;2.70;;;13.60;99.90;;;;;;5012761;28;20308;-78
2023/07/30 03:52:18;;;;;;;3.37;2.13;;;13.50;99.90;;;;;;5014713;28;20716;-78
2023/07/30 03:54:43;;;;;;;3.23;2.27;;;13.60;99.90;;;;;;5014874;28;20299;-78
2023/07/30 03:57:09;;;;;;;10.17;3.23;;;13.60;99.90;;;;;;5013575;28;20319;-78
2023/07/30 03:59:34;;;;;;;5.60;2.70;;;13.70;99.90;;;;;;5016413;28;20213;-79
2023/07/30 04:02:00;;;;;;;7.73;3.57;;;13.70;99.90;;;;;;5025017;28;20238;-78
2023/07/30 04:04:25;;;;;;;8.50;3.60;;;13.80;99.90;;;;;;5024290;28;20197;-78
2023/07/30 04:06:51;;;;;;;6.03;3.00;;;13.80;99.90;;;;;;5027015;28;20180;-78
2023/07/30 04:09:16;;;;;;;6.63;3.03;;;13.90;99.90;;;;;;5028822;28;20267;-77
2023/07/30 04:11:42;;;;;;;7.87;3.43;;;13.90;99.90;;;;;;5029586;28;20200;-77
2023/07/30 04:14:08;;;;;;;11.33;3.73;;;14.00;99.90;;;;;;5022139;28;20521;-78
2023/07/30 04:16:34;;;;;;;10.47;2.93;;;14.00;99.90;;;;;;5018048;28;20173;-78
2023/07/30 04:19:00;;;;;;;8.00;2.60;;;14.00;99.90;;;;;;5017162;28;20239;-78
2023/07/30 04:21:25;;;;;;;7.10;2.60;;;14.10;99.90;;;;;;5015982;28;20201;-78
2023/07/30 04:23:51;;;;;;;8.63;2.97;;;14.10;99.90;;;;;;5017209;28;20196;-78
2023/07/30 04:26:17;;;;;;;7.90;2.90;;;14.10;99.90;;;;;;5016617;28;20185;-78
2023/07/30 04:28:42;;;;;;;7.30;2.60;;;14.20;99.90;;;;;;5016896;28;20632;-78
2023/07/30 04:31:08;;;;;;;7.83;3.10;;;14.20;99.90;;;;;;5016093;28;20203;-78
2023/07/30 04:33:34;;;;;;;10.07;3.10;;;14.20;99.90;;;;;;5017334;28;20544;-78
2023/07/30 04:35:59;;;;;;;7.07;3.23;;;14.30;99.90;;;;;;5016874;28;20211;-78
2023/07/30 04:38:25;;;;;;;9.93;3.33;;;14.30;99.90;;;;;;5015558;28;20177;-78
2023/07/30 04:40:50;;;;;;;10.07;3.53;;;14.40;99.90;;;;;;5015574;28;20263;-78
2023/07/30 04:43:16;;;;;;;12.80;3.50;;;14.50;99.90;;;;;;5017260;28;20181;-77
2023/07/30 04:45:42;;;;;;;11.17;3.63;;;14.50;99.90;;;;;;5015303;28;20211;-78
2023/07/30 04:48:08;;;;;;;16.17;3.63;;;14.60;99.90;;;;;;5017017;28;20177;-78
2023/07/30 04:50:33;;;;;;;10.67;4.40;;;14.70;99.90;;;;;;5016529;28;20189;-78
2023/07/30 04:53:00;;;;;;;9.13;3.23;;;14.70;99.90;;;;;;5015562;28;20640;-78
2023/07/30 04:55:26;;;;;;;16.23;3.13;;;14.80;99.90;;;;;;5015567;28;20267;-78
2023/07/30 04:57:51;;;;;;;13.97;3.30;;;14.80;99.90;;;;;;5016816;28;20177;-77
2023/07/30 05:00:17;;;;;;;18.50;3.90;;;14.90;99.90;;;;;;5016486;28;20236;-77
2023/07/30 05:02:42;;;;;;;8.47;2.93;;;14.90;99.90;;;;;;5016773;28;20212;-79
2023/07/30 05:05:08;;;;;;;13.87;3.73;;;15.00;99.90;;;;;;5016928;28;20251;-78
2023/07/30 05:07:34;;;;;;;10.53;3.30;;;15.00;99.90;;;;;;5016475;28;20592;-78
2023/07/30 05:10:00;;;;;;;12.30;3.20;;;15.00;99.90;;;;;;5016583;28;20204;-78
2023/07/30 05:12:25;;;;;;;10.57;3.50;;;15.00;99.90;;;;;;5017006;28;20193;-78
2023/07/30 05:14:51;;;;;;;10.50;3.47;;;15.10;99.90;;;;;;5016362;28;20200;-78
2023/07/30 05:17:17;;;;;;;12.77;3.30;;;15.10;99.90;;;;;;5016086;28;20212;-78
2023/07/30 05:19:42;;;;;;;12.57;3.40;;;15.10;99.90;;;;;;5013927;28;20177;-79
2023/07/30 05:22:09;;;;;;;8.17;3.33;;;15.20;99.90;;;;;;5017001;28;20242;-79
2023/07/30 05:24:36;;;;;;;10.80;3.70;;;15.20;99.90;;;;;;5016739;28;20205;-79
2023/07/30 05:27:02;;;;;;;9.40;3.23;;;15.30;99.90;;;;;;5017044;28;20181;-79
2023/07/30 05:29:27;;;;;;;8.43;3.23;;;15.30;99.90;;;;;;5017086;28;20177;-79
2023/07/30 05:31:53;;;;;;;13.20;3.97;;;15.30;99.90;;;;;;5017457;28;20565;-80
2023/07/30 05:34:18;;;;;;;14.40;3.47;;;15.30;99.90;;;;;;5015188;28;20177;-80
2023/07/30 05:36:44;;;;;;;8.23;3.23;;;15.40;99.90;;;;;;5015695;28;20175;-80
2023/07/30 05:39:09;;;;;;;8.73;3.10;;;15.40;99.90;;;;;;5017098;28;20219;-80
2023/07/30 05:41:35;;;;;;;13.00;3.50;;;15.40;99.90;;;;;;5015537;28;20232;-80
2023/07/30 05:44:00;;;;;;;9.43;2.60;;;15.50;99.90;;;;;;5015601;28;20240;-80
2023/07/30 05:46:26;;;;;;;12.40;3.20;;;15.50;99.90;;;;;;5017073;28;20185;-79
2023/07/30 05:48:51;;;;;;;7.73;3.00;;;15.50;99.90;;;;;;5016629;28;20185;-80
2023/07/30 05:51:17;;;;;;;8.80;2.57;;;15.40;99.90;;;;;;5016855;28;20224;-80
2023/07/30 05:53:42;;;;;;;10.03;2.30;;;15.50;99.90;;;;;;5016188;28;20181;-80
2023/07/30 05:56:08;;;;;;;6.90;2.53;;;15.60;99.90;;;;;;5016740;28;20180;-80
2023/07/30 05:58:34;;;;;;;11.27;2.77;;;15.60;99.90;;;;;;5016943;28;20181;-80
2023/07/30 06:00:59;;;;;;;9.80;2.37;;;15.70;99.90;;;;;;5016524;28;20196;-80
2023/07/30 06:03:25;;;;;;;10.03;2.23;;;15.60;99.90;;;;;;5015301;28;20524;-79
2023/07/30 06:05:50;;;;;;;10.60;2.70;;;15.70;99.90;;;;;;5016293;28;20235;-81
2023/07/30 06:08:16;;;;;;;8.83;2.47;;;15.70;99.90;;;;;;5014969;28;20209;-81
2023/07/30 06:10:41;;;;;;;8.53;2.00;;;15.80;99.90;;;;;;5046928;28;20204;-80
2023/07/30 06:13:07;;;;;;;4.70;1.80;;;15.80;99.90;;;;;;5016957;28;20690;-81
2023/07/30 06:15:33;;;;;;;5.80;1.80;;;15.80;99.90;;;;;;5015269;28;20203;-81
2023/07/30 06:18:01;;;;;;;6.77;1.97;;;15.70;99.90;;;;;;5016850;28;20177;-81
2023/07/30 06:20:26;;;;;;;4.97;1.73;;;15.80;99.90;;;;;;5017819;28;20228;-80
2023/07/30 06:22:52;;;;;;;7.10;1.83;;;15.80;99.90;;;;;;5019547;28;20181;-81
2023/07/30 06:25:17;;;;;;;5.97;2.00;;;15.80;99.90;;;;;;5029352;28;20216;-81
2023/07/30 06:27:43;;;;;;;6.93;1.90;;;16.00;99.90;;;;;;5031629;28;20171;-80
2023/07/30 06:30:09;;;;;;;6.33;1.77;;;15.80;99.90;;;;;;5017785;28;20664;-81
2023/07/30 06:32:35;;;;;;;5.50;2.13;;;15.90;99.90;;;;;;5016011;28;20200;-80
2023/07/30 06:35:00;;;;;;;8.77;2.10;;;15.80;99.90;;;;;;5014876;28;20204;-80
2023/07/30 06:37:26;;;;;;;7.80;1.60;;;15.90;99.90;;;;;;5016071;28;20239;-81
2023/07/30 06:39:51;;;;;;;9.67;1.90;;;16.00;99.90;;;;;;5015915;28;20200;-80
2023/07/30 06:42:17;;;;;;;9.77;1.93;;;16.00;99.90;;;;;;5014604;28;20189;-79
2023/07/30 06:44:42;;;;;;;7.50;1.83;;;16.00;99.90;;;;;;5015456;28;20201;-79
2023/07/30 06:47:08;;;;;;;5.40;1.60;;;16.10;99.90;;;;;;5014127;28;20173;-80
2023/07/30 06:49:36;;;;;;;3.70;1.33;;;16.10;99.90;;;;;;5015314;28;20177;-80
2023/07/30 06:52:02;;;;;;;5.87;1.73;;;16.10;99.90;;;;;;5015663;28;20177;-80
2023/07/30 06:54:29;;;;;;;6.87;1.90;;;16.10;99.90;;;;;;5014214;28;20176;-80
2023/07/30 06:56:55;;;;;;;6.73;2.13;;;16.10;99.90;;;;;;5015269;28;20168;-80
2023/07/30 06:59:20;;;;;;;6.90;1.90;;;16.10;99.90;;;;;;5014624;28;20243;-80
2023/07/30 07:01:46;;;;;;;7.60;2.00;;;16.10;99.90;;;;;;5014851;28;20201;-80
2023/07/30 07:04:11;;;;;;;5.37;2.03;;;16.10;99.90;;;;;;5014987;28;20192;-80
2023/07/30 07:06:37;;;;;;;7.40;2.20;;;16.10;99.90;;;;;;5015367;28;20618;-80
2023/07/30 07:09:03;;;;;;;7.10;1.70;;;16.10;99.90;;;;;;5013455;28;20192;-80
2023/07/30 07:11:28;;;;;;;7.20;2.00;;;16.10;99.90;;;;;;5015286;28;20227;-80
2023/07/30 07:13:54;;;;;;;11.70;2.20;;;16.10;99.90;;;;;;5015758;28;20177;-80
2023/07/30 07:16:19;;;;;;;11.43;3.07;;;16.20;99.90;;;;;;5014137;28;20205;-80
2023/07/30 07:18:45;;;;;;;5.67;2.03;;;16.20;99.90;;;;;;5013478;28;20177;-80
2023/07/30 07:21:11;;;;;;;9.30;2.20;;;16.30;99.90;;;;;;5014620;28;20259;-80
2023/07/30 07:23:36;;;;;;;9.77;1.93;;;16.30;99.90;;;;;;5012658;28;20187;-80
2023/07/30 07:26:02;;;;;;;6.37;1.90;;;16.30;99.90;;;;;;5002538;28;20184;-80
2023/07/30 07:28:27;;;;;;;5.17;1.83;;;16.50;99.90;;;;;;5014916;28;20251;-80
2023/07/30 07:30:54;;;;;;;10.10;2.67;;;16.50;99.90;;;;;;5014005;28;20205;-81
2023/07/30 07:33:20;;;;;;;7.60;2.10;;;16.50;99.90;;;;;;5014436;28;20177;-83
2023/07/30 07:35:45;;;;;;;11.90;2.37;;;16.60;99.90;;;;;;5008889;28;20255;-80
2023/07/30 07:38:11;;;;;;;7.93;2.03;;;16.70;99.90;;;;;;5001033;28;20193;-80
2023/07/30 07:40:40;;;;;;;10.27;2.33;;;16.80;99.90;;;;;;5007607;28;20711;-80
2023/07/30 07:43:07;;;;;;;7.43;2.20;;;16.70;99.90;;;;;;5007751;28;20648;-81
2023/07/30 07:45:32;;;;;;;11.63;2.57;;;16.80;99.90;;;;;;5013104;28;20201;-81
2023/07/30 07:47:58;;;;;;;8.73;2.30;;;16.80;99.90;;;;;;5012880;28;20185;-80
2023/07/30 07:50:23;;;;;;;8.40;2.27;;;16.90;99.90;;;;;;5012893;28;20215;-80
2023/07/30 07:52:49;;;;;;;11.97;2.00;;;16.80;99.90;;;;;;5010931;28;20263;-80
2023/07/30 07:55:15;;;;;;;10.17;2.30;;;16.80;99.90;;;;;;4995543;28;20192;-81
2023/07/30 07:57:40;;;;;;;5.97;1.77;;;16.90;99.90;;;;;;5008163;28;20199;-80
2023/07/30 08:00:07;;;;;;;10.27;2.90;;;16.90;99.90;;;;;;4996653;28;20252;-80
2023/07/30 08:02:32;;;;;;;12.53;2.70;;;17.00;99.90;;;;;;4995010;28;20253;-81
2023/07/30 08:04:58;;;;;;;11.97;2.57;;;17.00;99.90;;;;;;4995169;28;20370;-80
2023/07/30 08:07:23;;;;;;;9.37;2.53;;;17.00;99.90;;;;;;4995299;28;20178;-81
2023/07/30 08:09:51;;;;;;;15.60;2.60;;;17.00;99.90;;;;;;4994443;28;20212;-80
2023/07/30 08:12:16;;;;;;;13.30;2.70;;;17.10;99.90;;;;;;4994508;28;20217;-80
2023/07/30 08:14:42;;;;;;;7.87;2.70;;;17.10;99.90;;;;;;4993252;28;20182;-80
2023/07/30 08:17:07;;;;;;;7.93;2.33;;;17.20;99.90;;;;;;4993124;28;20689;-80
2023/07/30 08:19:33;;;;;;;9.10;2.63;;;17.10;99.90;;;;;;4995053;28;20205;-81
2023/07/30 08:21:59;;;;;;;7.60;2.17;;;17.30;99.90;;;;;;4995317;28;20260;-79
2023/07/30 08:24:24;;;;;;;7.53;2.50;;;17.20;99.90;;;;;;4994607;28;20189;-80
2023/07/30 08:26:50;;;;;;;12.73;2.60;;;17.30;99.90;;;;;;4994940;28;20169;-81
2023/07/30 08:29:15;;;;;;;10.90;2.90;;;17.30;99.90;;;;;;4995426;28;20193;-81
2023/07/30 08:31:41;;;;;;;7.50;2.43;;;17.40;99.90;;;;;;4994935;28;20277;-80
2023/07/30 08:34:07;;;;;;;10.07;2.40;;;17.70;99.90;;;;;;4994731;28;20182;-81
2023/07/30 08:36:32;;;;;;;13.20;3.00;;;17.50;99.90;;;;;;4994890;28;20697;-81
2023/07/30 08:38:58;;;;;;;10.83;2.93;;;17.60;99.90;;;;;;4994739;28;20231;-81
2023/07/30 08:41:24;;;;;;;11.40;2.53;;;17.60;99.90;;;;;;4993652;28;20204;-81
2023/07/30 08:43:51;;;;;;;11.83;2.40;;;17.60;99.90;;;;;;4994766;28;20220;-81
2023/07/30 08:46:17;;;;;;;13.73;2.90;;;17.70;99.90;;;;;;4994833;28;20220;-81
2023/07/30 08:48:43;;;;;;;10.93;2.93;;;17.70;99.90;;;;;;4994557;28;20549;-80
2023/07/30 08:51:09;;;;;;;14.20;3.57;;;17.70;99.90;;;;;;4994953;28;20186;-80
2023/07/30 08:53:35;;;;;;;15.77;2.80;;;17.70;99.90;;;;;;4994391;28;20296;-81
2023/07/30 08:56:02;;;;;;;11.77;3.30;;;17.80;99.90;;;;;;4997046;28;20178;-81
2023/07/30 08:58:29;;;;;;;11.90;2.90;;;17.80;99.90;;;;;;4996711;28;20275;-81
2023/07/30 09:00:55;;;;;;;12.67;2.60;;;17.90;99.90;;;;;;5012752;28;20668;-81
2023/07/30 09:03:24;;;;;;;12.97;2.60;;;17.70;99.90;;;;;;4998291;28;20550;-81
2023/07/30 09:05:50;;;;;;;12.53;3.07;;;18.00;99.90;;;;;;5013184;28;20217;-81
2023/07/30 09:08:17;;;;;;;16.43;2.33;;;18.00;99.90;;;;;;4998279;28;20645;-79
2023/07/30 09:10:43;;;;;;;8.63;2.53;;;18.10;99.90;;;;;;4998410;28;20197;-81
2023/07/30 09:13:08;;;;;;;11.00;2.30;;;18.20;99.90;;;;;;4998441;28;20546;-81
2023/07/30 09:15:39;;;;;;;13.50;2.90;;;18.20;99.90;;;;;;4997871;28;20178;-80
2023/07/30 09:18:05;;;;;;;7.80;2.53;;;18.20;99.90;;;;;;4998313;28;20669;-80
2023/07/30 09:20:38;;;;;;;10.83;2.60;;;18.10;99.90;;;;;;4998013;28;20194;-81
2023/07/30 09:23:06;;;;;;;11.23;2.17;;;18.10;99.90;;;;;;4996914;28;20188;-81
2023/07/30 09:25:32;;;;;;;10.00;2.23;;;18.20;99.90;;;;;;4998426;28;20257;-81
2023/07/30 09:27:58;;;;;;;10.43;2.27;;;18.20;99.90;;;;;;4996914;28;20169;-81
2023/07/30 09:30:25;;;;;;;10.50;2.43;;;18.40;99.90;;;;;;4997759;28;20182;-81
2023/07/30 09:32:55;;;;;;;9.90;2.50;;;18.40;99.90;;;;;;4997389;28;20626;-81
2023/07/30 09:35:22;;;;;;;8.07;2.00;;;18.50;99.90;;;;;;4995952;28;20254;-81
2023/07/30 09:37:48;;;;;;;9.67;2.10;;;18.50;99.90;;;;;;4998586;28;20196;-81
2023/07/30 09:40:16;;;;;;;9.33;2.03;;;18.70;99.90;;;;;;4999414;28;20193;-81
2023/07/30 09:42:47;;;;;;;8.30;2.50;;;18.90;99.90;;;;;;4999708;28;20178;-81
2023/07/30 09:45:23;;;;;;;9.53;2.00;;;18.90;1.00;;;;;;4998784;28;20264;-81
2023/07/30 09:47:51;;;;;;;11.93;2.47;;;19.10;1.00;;;;;;4997893;28;20181;-81
2023/07/30 09:50:17;;;;;;;8.93;2.10;;;19.20;99.90;;;;;;4997288;28;20225;-81
2023/07/30 09:52:43;;;;;;;8.67;1.83;;;19.30;20.70;;;;;;4996330;28;20724;-80
2023/07/30 09:55:09;;;;;;;8.07;1.90;;;19.40;99.90;;;;;;4997874;28;20173;-81
2023/07/30 09:57:36;;;;;;;8.73;2.20;;;19.40;1.00;;;;;;4997034;28;20182;-81
2023/07/30 10:00:03;;;;;;;9.90;2.63;;;19.40;1.00;;;;;;4997706;28;20197;-81
2023/07/30 10:02:31;;;;;;;7.27;2.07;;;19.50;99.90;;;;;;4996429;28;20184;-81
2023/07/30 10:04:58;;;;;;;8.37;2.23;;;19.40;99.90;;;;;;4997006;28;20205;-80
2023/07/30 10:07:26;;;;;;;9.00;1.70;;;19.60;1.00;;;;;;4998217;28;20205;-82
2023/07/30 10:09:55;;;;;;;6.60;2.03;;;19.60;1.00;;;;;;4997994;28;20245;-80
2023/07/30 10:12:30;;;;;;;6.40;1.83;;;19.70;1.00;;;;;;4999882;28;20170;-82
2023/07/30 10:14:56;;;;;;;7.17;1.90;;;19.90;1.00;;;;;;4999514;28;20535;-80
2023/07/30 10:17:21;;;;;;;12.73;2.27;;;19.80;31.90;;;;;;4997039;28;20183;-81
2023/07/30 10:19:48;;;;;;;9.13;2.30;;;19.70;99.90;;;;;;4997419;28;20190;-81
2023/07/30 10:22:14;;;;;;;8.10;2.03;;;19.60;99.90;;;;;;4999084;28;20232;-81
2023/07/30 10:24:40;;;;;;;7.40;1.83;;;19.60;1.00;;;;;;4997752;28;20205;-81
2023/07/30 10:27:12;;;;;;;7.00;1.63;;;19.50;99.90;;;;;;4997755;28;20523;-81
2023/07/30 10:29:41;;;;;;;6.33;1.77;;;19.40;99.90;;;;;;4998195;28;20653;-81
2023/07/30 10:32:07;;;;;;;10.97;1.60;;;19.30;1.00;;;;;;4999724;28;20185;-80
2023/07/30 10:34:47;;;;;;;10.37;2.17;;;19.50;99.90;;;;;;4996002;28;20668;-81
2023/07/30 10:37:20;;;;;;;7.87;2.10;;;19.70;99.90;;;;;;4999896;28;20203;-79
2023/07/30 10:39:48;;;;;;;8.60;1.90;;;20.00;1.00;;;;;;5015202;28;20188;-81
2023/07/30 10:42:14;;;;;;;7.07;1.70;;;20.00;1.00;;;;;;5017140;28;20330;-81
2023/07/30 10:44:43;;;;;;;8.80;1.97;;;20.00;99.90;;;;;;5019070;28;20228;-81
2023/07/30 10:47:09;;;;;;;6.87;1.30;;;20.10;1.00;;;;;;4999744;28;20193;-80
2023/07/30 10:49:40;;;;;;;4.67;1.30;;;20.30;99.90;;;;;;5003165;28;20201;-81
2023/07/30 10:52:06;;;;;;;10.10;1.70;;;20.20;2.00;;;;;;5001852;28;20180;-81
2023/07/30 10:54:35;;;;;;;5.77;1.47;;;20.30;1.00;;;;;;5005117;28;20605;-81
2023/07/30 10:57:02;;;;;;;7.20;1.70;;;20.20;1.00;;;;;;5007415;28;20169;-82
2023/07/30 10:59:34;;;;;;;7.40;1.83;;;20.30;1.00;;;;;;5002629;28;20173;-82
2023/07/30 11:01:59;;;;;;;5.50;1.50;;;20.50;1.00;;;;;;4997397;28;20169;-80
2023/07/30 11:04:25;;;;;;;5.90;1.60;;;20.40;99.90;;;;;;4998955;28;20201;-83
2023/07/30 11:06:51;;;;;;;7.23;1.93;;;20.30;1.00;;;;;;4996897;28;20177;-81
2023/07/30 11:09:23;;;;;;;7.40;1.77;;;20.40;1.00;;;;;;4997407;28;20252;-82
2023/07/30 11:11:50;;;;;;;8.00;1.87;;;20.50;1.00;;;;;;5010034;28;20209;-81
2023/07/30 11:14:17;;;;;;;8.23;1.60;;;20.50;1.00;;;;;;4996805;28;20269;-81
2023/07/30 11:17:00;;;;;;;6.87;1.60;;;20.50;99.90;;;;;;5012129;28;20197;-82
2023/07/30 11:19:27;;;;;;;7.20;1.90;;;20.60;1.00;;;;;;5014968;28;20164;-83
2023/07/30 11:21:56;;;;;;;7.30;1.90;;;20.60;1.00;;;;;;5017196;28;20208;-81
2023/07/30 11:24:24;;;;;;;8.20;2.10;;;20.60;1.00;;;;;;5022999;28;20264;-82
2023/07/30 11:27:00;;;;;;;8.33;1.67;;;20.60;99.90;;;;;;5022651;28;20207;-83
2023/07/30 11:29:26;;;;;;;10.40;2.07;;;20.50;1.00;;;;;;5020743;28;20176;-83
2023/07/30 11:31:55;;;;;;;8.70;1.77;;;20.80;99.90;;;;;;5019317;28;20219;-82
2023/07/30 11:34:20;;;;;;;6.90;1.90;;;20.80;1.00;;;;;;5020411;28;20181;-82
2023/07/30 11:36:46;;;;;;;8.17;1.70;;;20.70;1.00;;;;;;5004810;28;20197;-81
2023/07/30 11:39:12;;;;;;;4.70;1.30;;;20.90;1.00;;;;;;5003976;28;20239;-81
2023/07/30 11:41:38;;;;;;;5.40;1.67;;;20.50;1.00;;;;;;5015324;28;20212;-82
2023/07/30 11:44:04;;;;;;;6.47;1.97;;;20.60;99.90;;;;;;5016532;28;20192;-80
2023/07/30 11:46:32;;;;;;;6.67;1.80;;;20.70;99.90;;;;;;5017621;28;20178;-80
2023/07/30 11:49:12;;;;;;;6.33;1.87;;;20.80;99.90;;;;;;5014763;28;20264;-80
2023/07/30 11:51:38;;;;;;;7.17;1.60;;;20.70;99.90;;;;;;5015308;28;20291;-80
2023/07/30 11:54:03;;;;;;;5.43;1.77;;;20.90;99.90;;;;;;5016540;28;20211;-80
2023/07/30 11:56:31;;;;;;;4.30;1.47;;;21.20;99.90;;;;;;5015823;28;20188;-80
2023/07/30 11:58:58;;;;;;;4.83;1.40;;;21.00;99.90;;;;;;5020881;28;20291;-81
2023/07/30 12:01:26;;;;;;;6.10;1.97;;;20.90;99.90;;;;;;5019819;28;20196;-80
2023/07/30 12:04:00;;;;;;;7.43;1.60;;;20.80;1.00;;;;;;5018906;28;20181;-82
2023/07/30 12:06:42;;;;;;;6.80;1.80;;;21.00;1.00;;;;;;5024449;28;20238;-82
2023/07/30 12:09:15;;;;;;;8.60;1.80;;;21.00;1.00;;;;;;5023058;28;20194;-81
2023/07/30 12:11:53;;;;;;;4.63;1.40;;;21.10;1.00;;;;;;5022205;28;20692;-81
2023/07/30 12:14:21;;;;;;;2.77;1.13;;;21.10;99.90;;;;;;5022524;28;20198;-81
2023/07/30 12:16:47;;;;;;;4.90;1.37;;;21.20;99.90;;;;;;5022333;28;20177;-81
2023/07/30 12:19:13;;;;;;;4.50;1.27;;;21.20;99.90;;;;;;5023568;28;20188;-82
2023/07/30 12:21:38;;;;;;;4.80;1.20;;;21.10;1.00;;;;;;5019312;28;20193;-82
2023/07/30 12:24:04;;;;;;;3.20;1.10;;;21.10;99.90;;;;;;5018379;28;20223;-83
2023/07/30 12:26:30;;;;;;;3.10;1.20;;;21.10;1.00;;;;;;5019153;28;20169;-82
2023/07/30 12:28:56;;;;;;;4.37;1.20;;;21.00;99.90;;;;;;5022289;28;20173;-82
2023/07/30 12:31:21;;;;;;;6.63;1.30;;;20.90;99.90;;;;;;5024169;28;20258;-82
2023/07/30 12:33:47;;;;;;;4.37;0.90;;;20.80;99.90;;;;;;5021718;28;20177;-82
2023/07/30 12:36:12;;;;;;;5.90;1.30;;;20.80;99.90;;;;;;5017841;28;20215;-82
2023/07/30 12:38:39;;;;;;;3.10;1.00;;;20.70;99.90;;;;;;5021818;28;20199;-83
2023/07/30 12:41:04;;;;;;;3.20;1.00;;;20.70;1.00;;;;;;5023893;28;20212;-83